PWSweather.com
Personal Weather Stations
Station Observations
KNVELKO7
Elko, NV 89801

Elko, NV 89801

Lat: 40.963233, Lon: -115.592836

Elevation: 5230

Station Type: WS-2812

High Low Average
Temperature 52.4°F11.3°F 46.1°F7.8°F 49.1°F9.5°F
Dew Point 45.9°F7.7°F 38.8°F3.8°F 42.4°F5.8°F
Winds 12.1 mph SW19.5 mph SW Calm Calm 5.0 mph 8.0 mph
Wind Gusts 13.9 mph22.4 mph -- 7.2 mph11.6 mph
Humidity 83% 69% 78%
Pressure 30.04 in1017.30 in 29.98 in1015.20 in -
Precipitation 0.76 in19.30 in - -
Hour Temp Dew Point Humidity Winds Wind Gusts Pressure Precip Precip Rate Daily Precip Total
12:02 AM 50.0°F10.0°C 40.3°F4.6°C 69% 1.4 mph W2.3 kmh W 2.2 mph3.5 kmh 30.00 in1015.9 mb 0.00 in0.0 mm 0.00 in/hr0.0 mm/hr 0.00 in0.0 mm
12:07 AM 49.9°F9.9°C 40.5°F4.7°C 70% 1.5 mph NW2.4 kmh NW 1.8 mph2.9 kmh 30.00 in1015.9 mb 0.00 in0.0 mm 0.00 in/hr0.0 mm/hr 0.00 in0.0 mm
12:12 AM 49.7°F9.8°C 40.3°F4.6°C 70% 1.0 mph W1.6 kmh W 2.0 mph3.2 kmh 30.00 in1015.9 mb 0.00 in0.0 mm 0.00 in/hr0.0 mm/hr 0.00 in0.0 mm
12:17 AM 49.7°F9.8°C 40.3°F4.6°C 70% 2.1 mph W3.4 kmh W 2.5 mph4.0 kmh 30.00 in1015.9 mb 0.00 in0.0 mm 0.00 in/hr0.0 mm/hr 0.00 in0.0 mm
12:23 AM 49.5°F9.7°C 40.1°F4.5°C 70% 3.2 mph WSW5.1 kmh WSW 3.4 mph5.5 kmh 30.00 in1015.9 mb 0.00 in0.0 mm 0.00 in/hr0.0 mm/hr 0.00 in0.0 mm
12:28 AM 49.5°F9.7°C 39.8°F4.3°C 69% 5.0 mph WSW8.0 kmh WSW 5.4 mph8.7 kmh 30.00 in1015.9 mb 0.00 in0.0 mm 0.00 in/hr0.0 mm/hr 0.00 in0.0 mm
12:33 AM 49.5°F9.7°C 40.1°F4.5°C 70% 5.3 mph WSW8.5 kmh WSW 5.6 mph9.0 kmh 30.00 in1015.9 mb 0.00 in0.0 mm 0.00 in/hr0.0 mm/hr 0.00 in0.0 mm
12:39 AM 49.7°F9.8°C 40.3°F4.6°C 70% 2.2 mph SW3.5 kmh SW 5.6 mph9.0 kmh 30.00 in1015.9 mb 0.00 in0.0 mm 0.00 in/hr0.0 mm/hr 0.00 in0.0 mm
12:44 AM 49.7°F9.8°C 40.3°F4.6°C 70% 3.4 mph SW5.5 kmh SW 5.6 mph9.0 kmh 30.00 in1015.9 mb 0.00 in0.0 mm 0.00 in/hr0.0 mm/hr 0.00 in0.0 mm
12:50 AM 49.7°F9.8°C 40.3°F4.6°C 70% 0.2 mph SSW0.3 kmh SSW 4.0 mph6.4 kmh 30.00 in1015.9 mb 0.00 in0.0 mm 0.00 in/hr0.0 mm/hr 0.00 in0.0 mm
12:55 AM 49.5°F9.7°C 40.1°F4.5°C 70% 0.8 mph E1.3 kmh E 2.5 mph4.0 kmh 30.00 in1015.9 mb 0.00 in0.0 mm 0.00 in/hr0.0 mm/hr 0.00 in0.0 mm
01:00 AM 49.5°F9.7°C 39.8°F4.3°C 69% 1.0 mph NNE1.6 kmh NNE 2.5 mph4.0 kmh 30.00 in1015.9 mb 0.00 in0.0 mm 0.00 in/hr0.0 mm/hr 0.00 in0.0 mm
01:05 AM 49.3°F9.6°C 39.6°F4.2°C 69% 0.4 mph NW0.6 kmh NW 2.5 mph4.0 kmh 30.00 in1015.9 mb 0.00 in0.0 mm 0.00 in/hr0.0 mm/hr 0.00 in0.0 mm
01:10 AM 49.5°F9.7°C 39.8°F4.3°C 69% 0.4 mph NW0.6 kmh NW 0.4 mph0.6 kmh 30.00 in1015.9 mb 0.00 in0.0 mm 0.00 in/hr0.0 mm/hr 0.00 in0.0 mm
01:15 AM 49.3°F9.6°C 40.0°F4.4°C 70% 0.4 mph W0.6 kmh W 1.6 mph2.6 kmh 30.00 in1015.9 mb 0.00 in0.0 mm 0.00 in/hr0.0 mm/hr 0.00 in0.0 mm
01:20 AM 49.3°F9.6°C 40.0°F4.4°C 70% 0.4 mph W0.6 kmh W 1.6 mph2.6 kmh 30.00 in1015.9 mb 0.00 in0.0 mm 0.00 in/hr0.0 mm/hr 0.00 in0.0 mm
01:25 AM 49.3°F9.6°C 40.0°F4.4°C 70% 3.0 mph NW4.8 kmh NW 3.4 mph5.5 kmh 30.00 in1015.9 mb 0.00 in0.0 mm 0.00 in/hr0.0 mm/hr 0.00 in0.0 mm
01:30 AM 49.1°F9.5°C 40.2°F4.6°C 71% 3.2 mph NNW5.1 kmh NNW 4.0 mph6.4 kmh 30.00 in1015.9 mb 0.00 in0.0 mm 0.00 in/hr0.0 mm/hr 0.00 in0.0 mm
01:35 AM 49.0°F9.4°C 40.3°F4.6°C 72% 1.5 mph NW2.4 kmh NW 4.0 mph6.4 kmh 30.00 in1015.9 mb 0.00 in0.0 mm 0.00 in/hr0.0 mm/hr 0.00 in0.0 mm
01:40 AM 49.0°F9.4°C 40.3°F4.6°C 72% 3.0 mph NW4.8 kmh NW 3.4 mph5.5 kmh 30.00 in1015.9 mb 0.00 in0.0 mm 0.00 in/hr0.0 mm/hr 0.00 in0.0 mm
01:45 AM 48.8°F9.3°C 40.2°F4.6°C 72% 2.0 mph W3.2 kmh W 3.4 mph5.5 kmh 30.00 in1015.9 mb 0.00 in0.0 mm 0.00 in/hr0.0 mm/hr 0.00 in0.0 mm
01:50 AM 48.8°F9.3°C 39.8°F4.3°C 71% 1.0 mph WSW1.6 kmh WSW 2.7 mph4.3 kmh 30.00 in1015.9 mb 0.00 in0.0 mm 0.00 in/hr0.0 mm/hr 0.00 in0.0 mm
01:56 AM 48.6°F9.2°C 40.0°F4.4°C 72% 4.7 mph W7.6 kmh W 6.9 mph11.1 kmh 30.00 in1015.9 mb 0.00 in0.0 mm 0.00 in/hr0.0 mm/hr 0.00 in0.0 mm
02:03 AM 48.8°F9.3°C 40.2°F4.6°C 72% 6.1 mph WSW9.8 kmh WSW 8.1 mph13.0 kmh 30.00 in1015.9 mb 0.00 in0.0 mm 0.00 in/hr0.0 mm/hr 0.00 in0.0 mm
02:08 AM 49.0°F9.4°C 40.0°F4.4°C 71% 4.6 mph SW7.4 kmh SW 6.9 mph11.1 kmh 30.00 in1015.9 mb 0.00 in0.0 mm 0.00 in/hr0.0 mm/hr 0.00 in0.0 mm
02:13 AM 49.0°F9.4°C 40.0°F4.4°C 71% 4.6 mph SW7.4 kmh SW 6.9 mph11.1 kmh 30.00 in1015.9 mb 0.00 in0.0 mm 0.00 in/hr0.0 mm/hr 0.00 in0.0 mm
02:18 AM 49.0°F9.4°C 40.0°F4.4°C 71% 1.6 mph WNW2.6 kmh WNW 6.3 mph10.1 kmh 30.00 in1015.9 mb 0.00 in0.0 mm 0.00 in/hr0.0 mm/hr 0.00 in0.0 mm
02:23 AM 49.0°F9.4°C 39.6°F4.2°C 70% 0.9 mph NNW1.4 kmh NNW 6.3 mph10.1 kmh 30.00 in1015.9 mb 0.00 in0.0 mm 0.00 in/hr0.0 mm/hr 0.00 in0.0 mm
02:28 AM 49.0°F9.4°C 40.0°F4.4°C 71% 0.3 mph NNW0.5 kmh NNW 1.1 mph1.8 kmh 30.00 in1015.9 mb 0.00 in0.0 mm 0.00 in/hr0.0 mm/hr 0.00 in0.0 mm
02:33 AM 48.6°F9.2°C 39.2°F4.0°C 70% 0.3 mph NNW0.5 kmh NNW 0.7 mph1.1 kmh 30.00 in1015.9 mb 0.00 in0.0 mm 0.00 in/hr0.0 mm/hr 0.00 in0.0 mm
02:38 AM 48.6°F9.2°C 39.2°F4.0°C 70% 0.3 mph 0.5 kmh 0.7 mph1.1 kmh 30.00 in1015.9 mb 0.00 in0.0 mm 0.00 in/hr0.0 mm/hr 0.00 in0.0 mm
02:43 AM 48.4°F9.1°C 39.1°F3.9°C 70% 0.3 mph NNW0.5 kmh NNW 0.7 mph1.1 kmh 29.99 in1015.6 mb 0.00 in0.0 mm 0.00 in/hr0.0 mm/hr 0.00 in0.0 mm
02:48 AM 48.4°F9.1°C 39.4°F4.1°C 71% Calm Calm 0.7 mph1.1 kmh 29.99 in1015.6 mb 0.00 in0.0 mm 0.00 in/hr0.0 mm/hr 0.00 in0.0 mm
02:53 AM 48.2°F9.0°C 39.3°F4.1°C 71% 1.5 mph ESE2.4 kmh ESE 1.6 mph2.6 kmh 29.99 in1015.6 mb 0.00 in0.0 mm 0.00 in/hr0.0 mm/hr 0.00 in0.0 mm
02:59 AM 47.9°F8.8°C 38.9°F3.8°C 71% 0.6 mph ESE1.0 kmh ESE 2.0 mph3.2 kmh 30.00 in1015.9 mb 0.00 in0.0 mm 0.00 in/hr0.0 mm/hr 0.00 in0.0 mm
03:05 AM 47.7°F8.7°C 39.1°F3.9°C 72% 0.6 mph ESE1.0 kmh ESE 1.1 mph1.8 kmh 29.99 in1015.6 mb 0.00 in0.0 mm 0.00 in/hr0.0 mm/hr 0.00 in0.0 mm
03:10 AM 47.3°F8.5°C 38.8°F3.8°C 72% 1.2 mph E1.9 kmh E 1.3 mph2.1 kmh 29.99 in1015.6 mb 0.00 in0.0 mm 0.00 in/hr0.0 mm/hr 0.00 in0.0 mm
03:16 AM 47.2°F8.4°C 39.0°F3.9°C 73% 0.4 mph E0.6 kmh E 1.3 mph2.1 kmh 29.99 in1015.6 mb 0.00 in0.0 mm 0.00 in/hr0.0 mm/hr 0.00 in0.0 mm
03:21 AM 47.0°F8.3°C 38.8°F3.8°C 73% 1.1 mph E1.8 kmh E 1.1 mph1.8 kmh 29.99 in1015.6 mb 0.00 in0.0 mm 0.00 in/hr0.0 mm/hr 0.00 in0.0 mm
03:26 AM 46.8°F8.2°C 39.3°F4.1°C 75% 1.5 mph E2.4 kmh E 1.8 mph2.9 kmh 29.99 in1015.6 mb 0.00 in0.0 mm 0.00 in/hr0.0 mm/hr 0.00 in0.0 mm
03:30 AM 46.6°F8.1°C 39.2°F4.0°C 75% 0.6 mph ESE1.0 kmh ESE 1.8 mph2.9 kmh 29.99 in1015.6 mb 0.00 in0.0 mm 0.00 in/hr0.0 mm/hr 0.00 in0.0 mm
03:35 AM 46.4°F8.0°C 39.0°F3.9°C 75% 0.6 mph ESE1.0 kmh ESE 1.1 mph1.8 kmh 29.99 in1015.6 mb 0.00 in0.0 mm 0.00 in/hr0.0 mm/hr 0.00 in0.0 mm
03:40 AM 46.4°F8.0°C 39.3°F4.1°C 76% 1.3 mph E2.1 kmh E 1.6 mph2.6 kmh 29.99 in1015.6 mb 0.00 in0.0 mm 0.00 in/hr0.0 mm/hr 0.00 in0.0 mm
03:46 AM 46.3°F7.9°C 39.2°F4.0°C 76% 1.0 mph E1.6 kmh E 1.6 mph2.6 kmh 29.99 in1015.6 mb 0.00 in0.0 mm 0.00 in/hr0.0 mm/hr 0.00 in0.0 mm
03:51 AM 46.3°F7.9°C 39.5°F4.2°C 77% 2.5 mph E4.0 kmh E 2.5 mph4.0 kmh 29.99 in1015.6 mb 0.00 in0.0 mm 0.00 in/hr0.0 mm/hr 0.00 in0.0 mm
03:56 AM 46.1°F7.8°C 39.6°F4.2°C 78% 2.1 mph ENE3.4 kmh ENE 2.7 mph4.3 kmh 29.99 in1015.6 mb 0.00 in0.0 mm 0.00 in/hr0.0 mm/hr 0.00 in0.0 mm
04:02 AM 46.3°F7.9°C 39.8°F4.3°C 78% 0.3 mph ENE0.5 kmh ENE 2.7 mph4.3 kmh 29.98 in1015.2 mb 0.00 in0.0 mm 0.00 in/hr0.0 mm/hr 0.00 in0.0 mm
04:07 AM 46.3°F7.9°C 39.5°F4.2°C 77% 0.4 mph ENE0.6 kmh ENE 0.9 mph1.4 kmh 29.98 in1015.2 mb 0.00 in0.0 mm 0.00 in/hr0.0 mm/hr 0.00 in0.0 mm
04:13 AM 46.3°F7.9°C 39.5°F4.2°C 77% 0.6 mph 1.0 kmh 1.1 mph1.8 kmh 29.98 in1015.2 mb 0.00 in0.0 mm 0.00 in/hr0.0 mm/hr 0.00 in0.0 mm
04:18 AM 46.1°F7.8°C 39.3°F4.1°C 77% 1.1 mph N1.8 kmh N 1.3 mph2.1 kmh 29.98 in1015.2 mb 0.00 in0.0 mm 0.00 in/hr0.0 mm/hr 0.00 in0.0 mm
04:23 AM 46.1°F7.8°C 39.3°F4.1°C 77% 0.7 mph NNW1.1 kmh NNW 1.3 mph2.1 kmh 29.98 in1015.2 mb 0.00 in0.0 mm 0.00 in/hr0.0 mm/hr 0.00 in0.0 mm
04:28 AM 46.1°F7.8°C 39.6°F4.2°C 78% 0.9 mph WNW1.4 kmh WNW 1.1 mph1.8 kmh 29.99 in1015.6 mb 0.00 in0.0 mm 0.00 in/hr0.0 mm/hr 0.00 in0.0 mm
04:33 AM 46.1°F7.8°C 39.6°F4.2°C 78% 0.7 mph W1.1 kmh W 1.1 mph1.8 kmh 29.98 in1015.2 mb 0.00 in0.0 mm 0.00 in/hr0.0 mm/hr 0.00 in0.0 mm
04:38 AM 46.1°F7.8°C 40.0°F4.4°C 79% 1.5 mph NW2.4 kmh NW 1.8 mph2.9 kmh 29.98 in1015.2 mb 0.00 in0.0 mm 0.00 in/hr0.0 mm/hr 0.00 in0.0 mm
04:43 AM 46.3°F7.9°C 39.8°F4.3°C 78% 0.3 mph NNW0.5 kmh NNW 1.8 mph2.9 kmh 29.98 in1015.2 mb 0.00 in0.0 mm 0.00 in/hr0.0 mm/hr 0.00 in0.0 mm
04:48 AM 46.3°F7.9°C 39.8°F4.3°C 78% 0.2 mph NNW0.3 kmh NNW 1.1 mph1.8 kmh 29.98 in1015.2 mb 0.00 in0.0 mm 0.00 in/hr0.0 mm/hr 0.00 in0.0 mm
04:53 AM 46.3°F7.9°C 39.8°F4.3°C 78% 1.0 mph WSW1.6 kmh WSW 1.6 mph2.6 kmh 29.98 in1015.2 mb 0.00 in0.0 mm 0.00 in/hr0.0 mm/hr 0.00 in0.0 mm
04:58 AM 46.3°F7.9°C 39.8°F4.3°C 78% 0.4 mph W0.6 kmh W 1.6 mph2.6 kmh 29.98 in1015.2 mb 0.00 in0.0 mm 0.00 in/hr0.0 mm/hr 0.00 in0.0 mm
05:04 AM 46.4°F8.0°C 40.0°F4.4°C 78% 0.4 mph W0.6 kmh W 0.9 mph1.4 kmh 29.98 in1015.2 mb 0.00 in0.0 mm 0.00 in/hr0.0 mm/hr 0.00 in0.0 mm
05:09 AM 46.4°F8.0°C 39.7°F4.3°C 77% 0.8 mph WSW1.3 kmh WSW 1.3 mph2.1 kmh 29.98 in1015.2 mb 0.00 in0.0 mm 0.00 in/hr0.0 mm/hr 0.00 in0.0 mm
05:14 AM 46.4°F8.0°C 39.7°F4.3°C 77% 0.3 mph WSW0.5 kmh WSW 1.3 mph2.1 kmh 29.98 in1015.2 mb 0.00 in0.0 mm 0.00 in/hr0.0 mm/hr 0.00 in0.0 mm
05:19 AM 46.4°F8.0°C 39.7°F4.3°C 77% Calm Calm 1.1 mph1.8 kmh 29.99 in1015.6 mb 0.00 in0.0 mm 0.00 in/hr0.0 mm/hr 0.00 in0.0 mm
05:24 AM 46.4°F8.0°C 39.7°F4.3°C 77% Calm Calm 0.2 mph0.3 kmh 29.98 in1015.2 mb 0.00 in0.0 mm 0.00 in/hr0.0 mm/hr 0.00 in0.0 mm
05:29 AM 46.4°F8.0°C 39.7°F4.3°C 77% Calm Calm -- 29.98 in1015.2 mb 0.00 in0.0 mm 0.00 in/hr0.0 mm/hr 0.00 in0.0 mm
05:34 AM 46.3°F7.9°C 39.5°F4.2°C 77% Calm Calm -- 29.98 in1015.2 mb 0.00 in0.0 mm 0.00 in/hr0.0 mm/hr 0.00 in0.0 mm
05:40 AM 46.3°F7.9°C 39.5°F4.2°C 77% Calm Calm -- 29.98 in1015.2 mb 0.00 in0.0 mm 0.00 in/hr0.0 mm/hr 0.00 in0.0 mm
05:44 AM 46.3°F7.9°C 39.5°F4.2°C 77% Calm Calm -- 29.98 in1015.2 mb 0.00 in0.0 mm 0.00 in/hr0.0 mm/hr 0.00 in0.0 mm
05:49 AM 46.3°F7.9°C 39.5°F4.2°C 77% Calm Calm -- 29.98 in1015.2 mb 0.00 in0.0 mm 0.00 in/hr0.0 mm/hr 0.00 in0.0 mm
05:54 AM 46.3°F7.9°C 39.5°F4.2°C 77% 0.2 mph W0.3 kmh W 0.2 mph0.3 kmh 29.98 in1015.2 mb 0.00 in0.0 mm 0.00 in/hr0.0 mm/hr 0.00 in0.0 mm
06:00 AM 46.3°F7.9°C 39.5°F4.2°C 77% Calm Calm 0.2 mph0.3 kmh 29.98 in1015.2 mb 0.00 in0.0 mm 0.00 in/hr0.0 mm/hr 0.00 in0.0 mm
06:05 AM 46.3°F7.9°C 39.5°F4.2°C 77% Calm Calm -- 29.99 in1015.6 mb 0.00 in0.0 mm 0.00 in/hr0.0 mm/hr 0.00 in0.0 mm
06:11 AM 46.3°F7.9°C 39.5°F4.2°C 77% 1.1 mph SW1.8 kmh SW 1.8 mph2.9 kmh 29.99 in1015.6 mb 0.00 in0.0 mm 0.00 in/hr0.0 mm/hr 0.00 in0.0 mm
06:16 AM 46.4°F8.0°C 39.7°F4.3°C 77% 2.7 mph SW4.3 kmh SW 3.4 mph5.5 kmh 29.99 in1015.6 mb 0.00 in0.0 mm 0.00 in/hr0.0 mm/hr 0.00 in0.0 mm
06:20 AM 46.4°F8.0°C 39.7°F4.3°C 77% 4.1 mph W6.6 kmh W 4.7 mph7.6 kmh 29.99 in1015.6 mb 0.00 in0.0 mm 0.00 in/hr0.0 mm/hr 0.00 in0.0 mm
06:25 AM 46.8°F8.2°C 40.0°F4.4°C 77% 3.9 mph SW6.3 kmh SW 6.5 mph10.5 kmh 29.99 in1015.6 mb 0.00 in0.0 mm 0.00 in/hr0.0 mm/hr 0.00 in0.0 mm
06:30 AM 47.0°F8.3°C 40.5°F4.7°C 78% 1.8 mph SW2.9 kmh SW 6.5 mph10.5 kmh 29.99 in1015.6 mb 0.00 in0.0 mm 0.00 in/hr0.0 mm/hr 0.00 in0.0 mm
06:36 AM 47.0°F8.3°C 40.1°F4.5°C 77% 3.3 mph SW5.3 kmh SW 4.0 mph6.4 kmh 29.99 in1015.6 mb 0.00 in0.0 mm 0.00 in/hr0.0 mm/hr 0.00 in0.0 mm
06:41 AM 47.2°F8.4°C 40.3°F4.6°C 77% 3.7 mph SW6.0 kmh SW 4.7 mph7.6 kmh 29.99 in1015.6 mb 0.00 in0.0 mm 0.00 in/hr0.0 mm/hr 0.00 in0.0 mm
06:46 AM 47.2°F8.4°C 40.3°F4.6°C 77% 2.8 mph WSW4.5 kmh WSW 4.7 mph7.6 kmh 29.99 in1015.6 mb 0.00 in0.0 mm 0.00 in/hr0.0 mm/hr 0.00 in0.0 mm
06:51 AM 47.2°F8.4°C 40.3°F4.6°C 77% 8.4 mph SW13.5 kmh SW 9.4 mph15.1 kmh 29.99 in1015.6 mb 0.00 in0.0 mm 0.00 in/hr0.0 mm/hr 0.00 in0.0 mm
06:56 AM 47.3°F8.5°C 40.2°F4.6°C 76% 5.6 mph SW9.0 kmh SW 9.4 mph15.1 kmh 29.99 in1015.6 mb 0.00 in0.0 mm 0.00 in/hr0.0 mm/hr 0.00 in0.0 mm
07:02 AM 47.5°F8.6°C 40.3°F4.6°C 76% 7.6 mph WSW12.2 kmh WSW 8.5 mph13.7 kmh 29.99 in1015.6 mb 0.00 in0.0 mm 0.00 in/hr0.0 mm/hr 0.00 in0.0 mm
07:07 AM 47.7°F8.7°C 40.4°F4.7°C 76% 7.1 mph SW11.4 kmh SW 9.2 mph14.8 kmh 29.99 in1015.6 mb 0.00 in0.0 mm 0.00 in/hr0.0 mm/hr 0.00 in0.0 mm
07:12 AM 47.9°F8.8°C 40.6°F4.8°C 76% 7.7 mph SW12.4 kmh SW 9.2 mph14.8 kmh 29.99 in1015.6 mb 0.00 in0.0 mm 0.00 in/hr0.0 mm/hr 0.00 in0.0 mm
07:17 AM 47.9°F8.8°C 40.2°F4.6°C 75% 9.6 mph WSW15.4 kmh WSW 9.8 mph15.8 kmh 29.99 in1015.6 mb 0.00 in0.0 mm 0.00 in/hr0.0 mm/hr 0.00 in0.0 mm
07:22 AM 47.9°F8.8°C 40.6°F4.8°C 76% 9.6 mph SW15.4 kmh SW 11.4 mph18.3 kmh 30.00 in1015.9 mb 0.00 in0.0 mm 0.00 in/hr0.0 mm/hr 0.00 in0.0 mm
07:27 AM 47.7°F8.7°C 40.4°F4.7°C 76% 8.1 mph W13.0 kmh W 11.4 mph18.3 kmh 30.00 in1015.9 mb 0.00 in0.0 mm 0.00 in/hr0.0 mm/hr 0.00 in0.0 mm
07:32 AM 47.5°F8.6°C 40.3°F4.6°C 76% 10.6 mph SW17.1 kmh SW 11.4 mph18.3 kmh 30.00 in1015.9 mb 0.00 in0.0 mm 0.00 in/hr0.0 mm/hr 0.00 in0.0 mm
07:37 AM 47.5°F8.6°C 40.3°F4.6°C 76% 7.8 mph SW12.6 kmh SW 11.4 mph18.3 kmh 30.00 in1015.9 mb 0.00 in0.0 mm 0.00 in/hr0.0 mm/hr 0.00 in0.0 mm
07:42 AM 47.5°F8.6°C 40.3°F4.6°C 76% 7.7 mph SW12.4 kmh SW 10.3 mph16.6 kmh 30.00 in1015.9 mb 0.00 in0.0 mm 0.00 in/hr0.0 mm/hr 0.00 in0.0 mm
07:46 AM 47.5°F8.6°C 40.3°F4.6°C 76% 7.5 mph SW12.1 kmh SW 9.6 mph15.4 kmh 30.00 in1015.9 mb 0.00 in0.0 mm 0.00 in/hr0.0 mm/hr 0.00 in0.0 mm
07:51 AM 47.5°F8.6°C 40.3°F4.6°C 76% 7.9 mph SW12.7 kmh SW 10.7 mph17.2 kmh 30.00 in1015.9 mb 0.00 in0.0 mm 0.00 in/hr0.0 mm/hr 0.00 in0.0 mm
07:58 AM 47.5°F8.6°C 40.3°F4.6°C 76% 6.9 mph SW11.1 kmh SW 9.8 mph15.8 kmh 30.00 in1015.9 mb 0.00 in0.0 mm 0.00 in/hr0.0 mm/hr 0.00 in0.0 mm
08:03 AM 47.7°F8.7°C 40.4°F4.7°C 76% 7.7 mph SW12.4 kmh SW 10.7 mph17.2 kmh 30.00 in1015.9 mb 0.00 in0.0 mm 0.00 in/hr0.0 mm/hr 0.00 in0.0 mm
08:09 AM 47.7°F8.7°C 40.4°F4.7°C 76% 7.4 mph WSW11.9 kmh WSW 10.7 mph17.2 kmh 30.00 in1015.9 mb 0.00 in0.0 mm 0.00 in/hr0.0 mm/hr 0.00 in0.0 mm
08:14 AM 47.7°F8.7°C 40.2°F4.6°C 75% 9.5 mph SW15.3 kmh SW 12.5 mph20.1 kmh 30.01 in1016.3 mb 0.00 in0.0 mm 0.00 in/hr0.0 mm/hr 0.00 in0.0 mm
08:19 AM 47.9°F8.8°C 40.6°F4.8°C 76% 9.1 mph SW14.6 kmh SW 12.5 mph20.1 kmh 30.01 in1016.3 mb 0.00 in0.0 mm 0.00 in/hr0.0 mm/hr 0.00 in0.0 mm
08:24 AM 47.9°F8.8°C 40.6°F4.8°C 76% 8.2 mph SW13.2 kmh SW 12.1 mph19.5 kmh 30.01 in1016.3 mb 0.00 in0.0 mm 0.00 in/hr0.0 mm/hr 0.00 in0.0 mm
08:29 AM 47.9°F8.8°C 40.6°F4.8°C 76% 9.1 mph SW14.6 kmh SW 11.4 mph18.3 kmh 30.01 in1016.3 mb 0.00 in0.0 mm 0.00 in/hr0.0 mm/hr 0.00 in0.0 mm
08:34 AM 47.9°F8.8°C 40.6°F4.8°C 76% 7.4 mph SW11.9 kmh SW 11.4 mph18.3 kmh 30.00 in1015.9 mb 0.00 in0.0 mm 0.00 in/hr0.0 mm/hr 0.00 in0.0 mm
08:40 AM 47.7°F8.7°C 40.8°F4.9°C 77% 7.5 mph SW12.1 kmh SW 10.7 mph17.2 kmh 30.01 in1016.3 mb 0.00 in0.0 mm 0.00 in/hr0.0 mm/hr 0.00 in0.0 mm
08:45 AM 47.9°F8.8°C 41.0°F5.0°C 77% 10.5 mph SW16.9 kmh SW 12.3 mph19.8 kmh 30.01 in1016.3 mb 0.00 in0.0 mm 0.00 in/hr0.0 mm/hr 0.00 in0.0 mm
08:50 AM 47.9°F8.8°C 41.0°F5.0°C 77% 7.9 mph SW12.7 kmh SW 12.3 mph19.8 kmh 30.01 in1016.3 mb 0.00 in0.0 mm 0.00 in/hr0.0 mm/hr 0.00 in0.0 mm
08:55 AM 47.9°F8.8°C 41.0°F5.0°C 77% 9.6 mph SW15.4 kmh SW 11.9 mph19.2 kmh 30.01 in1016.3 mb 0.00 in0.0 mm 0.00 in/hr0.0 mm/hr 0.00 in0.0 mm
09:01 AM 47.9°F8.8°C 41.0°F5.0°C 77% 8.6 mph WSW13.8 kmh WSW 13.9 mph22.4 kmh 30.01 in1016.3 mb 0.00 in0.0 mm 0.00 in/hr0.0 mm/hr 0.00 in0.0 mm
09:06 AM 47.9°F8.8°C 41.3°F5.2°C 78% 8.1 mph SW13.0 kmh SW 13.9 mph22.4 kmh 30.01 in1016.3 mb 0.00 in0.0 mm 0.00 in/hr0.0 mm/hr 0.00 in0.0 mm
09:11 AM 47.9°F8.8°C 41.3°F5.2°C 78% 9.6 mph SW15.4 kmh SW 12.8 mph20.6 kmh 30.01 in1016.3 mb 0.00 in0.0 mm 0.00 in/hr0.0 mm/hr 0.00 in0.0 mm
09:16 AM 47.9°F8.8°C 41.3°F5.2°C 78% 9.8 mph SW15.8 kmh SW 12.8 mph20.6 kmh 30.01 in1016.3 mb 0.00 in0.0 mm 0.00 in/hr0.0 mm/hr 0.00 in0.0 mm
09:21 AM 47.9°F8.8°C 41.3°F5.2°C 78% 9.8 mph SSW15.8 kmh SSW 11.4 mph18.3 kmh 30.01 in1016.3 mb 0.00 in0.0 mm 0.00 in/hr0.0 mm/hr 0.00 in0.0 mm
09:26 AM 47.9°F8.8°C 41.7°F5.4°C 79% 11.6 mph SW18.7 kmh SW 13.4 mph21.6 kmh 30.01 in1016.3 mb 0.00 in0.0 mm 0.00 in/hr0.0 mm/hr 0.00 in0.0 mm
09:31 AM 47.9°F8.8°C 41.7°F5.4°C 79% 9.5 mph SW15.3 kmh SW 13.4 mph21.6 kmh 30.01 in1016.3 mb 0.00 in0.0 mm 0.00 in/hr0.0 mm/hr 0.00 in0.0 mm
09:36 AM 47.9°F8.8°C 41.9°F5.5°C 80% 8.9 mph SW14.3 kmh SW 12.8 mph20.6 kmh 30.01 in1016.3 mb 0.00 in0.0 mm 0.00 in/hr0.0 mm/hr 0.00 in0.0 mm
09:41 AM 48.1°F8.9°C 42.1°F5.6°C 80% 11.3 mph SW18.2 kmh SW 12.8 mph20.6 kmh 30.02 in1016.6 mb 0.00 in0.0 mm 0.00 in/hr0.0 mm/hr 0.00 in0.0 mm
09:47 AM 47.9°F8.8°C 41.9°F5.5°C 80% 12.1 mph SW19.5 kmh SW 13.9 mph22.4 kmh 30.02 in1016.6 mb 0.00 in0.0 mm 0.00 in/hr0.0 mm/hr 0.00 in0.0 mm
09:52 AM 48.1°F8.9°C 42.1°F5.6°C 80% 7.8 mph WSW12.6 kmh WSW 13.9 mph22.4 kmh 30.02 in1016.6 mb 0.00 in0.0 mm 0.00 in/hr0.0 mm/hr 0.00 in0.0 mm
09:58 AM 47.9°F8.8°C 41.9°F5.5°C 80% 8.4 mph SW13.5 kmh SW 11.2 mph18.0 kmh 30.02 in1016.6 mb 0.00 in0.0 mm 0.00 in/hr0.0 mm/hr 0.00 in0.0 mm
10:05 AM 47.9°F8.8°C 41.9°F5.5°C 80% 6.8 mph SSW10.9 kmh SSW 9.2 mph14.8 kmh 30.02 in1016.6 mb 0.01 in0.3 mm 0.01 in/hr0.3 mm/hr 0.01 in0.3 mm
10:10 AM 47.9°F8.8°C 42.3°F5.7°C 81% 7.4 mph SW11.9 kmh SW 9.4 mph15.1 kmh 30.02 in1016.6 mb 0.01 in0.3 mm 0.00 in/hr0.0 mm/hr 0.01 in0.3 mm
10:16 AM 48.1°F8.9°C 42.5°F5.8°C 81% 7.1 mph SW11.4 kmh SW 9.4 mph15.1 kmh 30.03 in1016.9 mb 0.01 in0.3 mm 0.00 in/hr0.0 mm/hr 0.01 in0.3 mm
10:22 AM 48.1°F8.9°C 42.5°F5.8°C 81% 6.9 mph SSW11.1 kmh SSW 9.2 mph14.8 kmh 30.02 in1016.6 mb 0.01 in0.3 mm 0.00 in/hr0.0 mm/hr 0.01 in0.3 mm
10:27 AM 48.1°F8.9°C 42.5°F5.8°C 81% 6.1 mph SW9.8 kmh SW 7.6 mph12.2 kmh 30.02 in1016.6 mb 0.01 in0.3 mm 0.00 in/hr0.0 mm/hr 0.01 in0.3 mm
10:33 AM 47.9°F8.8°C 42.3°F5.7°C 81% 8.6 mph SW13.8 kmh SW 9.6 mph15.4 kmh 30.03 in1016.9 mb 0.01 in0.3 mm 0.00 in/hr0.0 mm/hr 0.01 in0.3 mm
10:38 AM 47.9°F8.8°C 42.3°F5.7°C 81% 4.3 mph SW6.9 kmh SW 10.1 mph16.3 kmh 30.03 in1016.9 mb 0.01 in0.3 mm 0.00 in/hr0.0 mm/hr 0.01 in0.3 mm
10:43 AM 48.1°F8.9°C 42.5°F5.8°C 81% 8.3 mph SW13.4 kmh SW 10.1 mph16.3 kmh 30.03 in1016.9 mb 0.01 in0.3 mm 0.00 in/hr0.0 mm/hr 0.01 in0.3 mm
10:48 AM 47.9°F8.8°C 42.3°F5.7°C 81% 5.1 mph SW8.2 kmh SW 8.9 mph14.3 kmh 30.03 in1016.9 mb 0.01 in0.3 mm 0.00 in/hr0.0 mm/hr 0.01 in0.3 mm
10:53 AM 47.9°F8.8°C 42.3°F5.7°C 81% 4.6 mph SW7.4 kmh SW 6.9 mph11.1 kmh 30.03 in1016.9 mb 0.02 in0.5 mm 0.12 in/hr3.0 mm/hr 0.02 in0.5 mm
10:58 AM 48.1°F8.9°C 42.5°F5.8°C 81% 3.3 mph SW5.3 kmh SW 5.1 mph8.2 kmh 30.04 in1017.3 mb 0.01 in0.3 mm 0.00 in/hr0.0 mm/hr 0.02 in0.5 mm
11:05 AM 48.2°F9.0°C 42.7°F5.9°C 81% 2.1 mph SW3.4 kmh SW 3.6 mph5.8 kmh 30.04 in1017.3 mb 0.01 in0.3 mm 0.00 in/hr0.0 mm/hr 0.02 in0.5 mm
11:12 AM 48.6°F9.2°C 43.3°F6.3°C 82% 0.7 mph SW1.1 kmh SW 3.8 mph6.1 kmh 30.04 in1017.3 mb 0.02 in0.5 mm 0.09 in/hr2.3 mm/hr 0.03 in0.8 mm
11:17 AM 48.8°F9.3°C 43.5°F6.4°C 82% 2.3 mph SW3.7 kmh SW 3.8 mph6.1 kmh 30.04 in1017.3 mb 0.02 in0.5 mm 0.00 in/hr0.0 mm/hr 0.03 in0.8 mm
11:22 AM 49.1°F9.5°C 43.8°F6.6°C 82% 2.7 mph SW4.3 kmh SW 2.9 mph4.7 kmh 30.03 in1016.9 mb 0.02 in0.5 mm 0.00 in/hr0.0 mm/hr 0.03 in0.8 mm
11:27 AM 49.5°F9.7°C 44.5°F6.9°C 83% 4.3 mph SW6.9 kmh SW 4.5 mph7.2 kmh 30.03 in1016.9 mb 0.03 in0.8 mm 0.12 in/hr3.0 mm/hr 0.04 in1.0 mm
11:32 AM 49.9°F9.9°C 44.6°F7.0°C 82% 2.7 mph SSW4.3 kmh SSW 4.5 mph7.2 kmh 30.04 in1017.3 mb 0.03 in0.8 mm 0.00 in/hr0.0 mm/hr 0.04 in1.0 mm
11:38 AM 50.2°F10.1°C 44.9°F7.2°C 82% 3.3 mph S5.3 kmh S 4.9 mph7.9 kmh 30.04 in1017.3 mb 0.03 in0.8 mm 0.00 in/hr0.0 mm/hr 0.04 in1.0 mm
11:43 AM 50.4°F10.2°C 45.1°F7.3°C 82% 4.4 mph SSW7.1 kmh SSW 5.4 mph8.7 kmh 30.04 in1017.3 mb 0.04 in1.0 mm 0.12 in/hr3.0 mm/hr 0.05 in1.3 mm
11:48 AM 50.8°F10.4°C 45.5°F7.5°C 82% 6.8 mph S10.9 kmh S 9.2 mph14.8 kmh 30.03 in1016.9 mb 0.03 in0.8 mm 0.00 in/hr0.0 mm/hr 0.05 in1.3 mm
11:55 AM 50.4°F10.2°C 45.1°F7.3°C 82% 7.5 mph SW12.1 kmh SW 10.7 mph17.2 kmh 30.04 in1017.3 mb 0.03 in0.8 mm 0.00 in/hr0.0 mm/hr 0.05 in1.3 mm
12:00 PM 50.2°F10.1°C 44.6°F7.0°C 81% 8.0 mph SSW12.9 kmh SSW 10.7 mph17.2 kmh 30.03 in1016.9 mb 0.03 in0.8 mm 0.00 in/hr0.0 mm/hr 0.05 in1.3 mm
12:06 PM 50.2°F10.1°C 44.6°F7.0°C 81% 7.6 mph SW12.2 kmh SW 10.5 mph16.9 kmh 30.03 in1016.9 mb 0.03 in0.8 mm 0.00 in/hr0.0 mm/hr 0.05 in1.3 mm
12:11 PM 50.2°F10.1°C 44.6°F7.0°C 81% 4.7 mph S7.6 kmh S 8.9 mph14.3 kmh 30.03 in1016.9 mb 0.02 in0.5 mm 0.00 in/hr0.0 mm/hr 0.05 in1.3 mm
12:16 PM 50.2°F10.1°C 44.6°F7.0°C 81% 4.7 mph SW7.6 kmh SW 7.4 mph11.9 kmh 30.03 in1016.9 mb 0.02 in0.5 mm 0.00 in/hr0.0 mm/hr 0.05 in1.3 mm
12:21 PM 50.4°F10.2°C 44.7°F7.1°C 81% 7.4 mph SSW11.9 kmh SSW 8.5 mph13.7 kmh 30.03 in1016.9 mb 0.02 in0.5 mm 0.00 in/hr0.0 mm/hr 0.05 in1.3 mm
12:26 PM 50.4°F10.2°C 44.7°F7.1°C 81% 6.9 mph SW11.1 kmh SW 8.7 mph14.0 kmh 30.03 in1016.9 mb 0.01 in0.3 mm 0.00 in/hr0.0 mm/hr 0.05 in1.3 mm
12:31 PM 50.2°F10.1°C 44.3°F6.8°C 80% 6.6 mph SW10.6 kmh SW 10.3 mph16.6 kmh 30.03 in1016.9 mb 0.01 in0.3 mm 0.00 in/hr0.0 mm/hr 0.05 in1.3 mm
12:36 PM 50.0°F10.0°C 44.1°F6.7°C 80% 7.2 mph S11.6 kmh S 10.3 mph16.6 kmh 30.03 in1016.9 mb 0.01 in0.3 mm 0.00 in/hr0.0 mm/hr 0.05 in1.3 mm
12:42 PM 50.0°F10.0°C 44.1°F6.7°C 80% 8.6 mph SSW13.8 kmh SSW 9.2 mph14.8 kmh 30.04 in1017.3 mb 0.00 in0.0 mm 0.00 in/hr0.0 mm/hr 0.05 in1.3 mm
12:47 PM 50.0°F10.0°C 44.1°F6.7°C 80% 5.8 mph SSW9.3 kmh SSW 9.2 mph14.8 kmh 30.04 in1017.3 mb 0.00 in0.0 mm 0.00 in/hr0.0 mm/hr 0.05 in1.3 mm
12:53 PM 50.0°F10.0°C 44.1°F6.7°C 80% 6.8 mph S10.9 kmh S 7.6 mph12.2 kmh 30.04 in1017.3 mb 0.00 in0.0 mm 0.00 in/hr0.0 mm/hr 0.05 in1.3 mm
12:58 PM 49.9°F9.9°C 43.6°F6.4°C 79% 6.6 mph SSW10.6 kmh SSW 7.6 mph12.2 kmh 30.03 in1016.9 mb 0.01 in0.3 mm 0.12 in/hr3.0 mm/hr 0.06 in1.5 mm
01:04 PM 49.9°F9.9°C 43.9°F6.6°C 80% 10.0 mph S16.1 kmh S 11.4 mph18.3 kmh 30.04 in1017.3 mb 0.01 in0.3 mm 0.00 in/hr0.0 mm/hr 0.06 in1.5 mm
01:09 PM 49.9°F9.9°C 43.9°F6.6°C 80% 6.9 mph SW11.1 kmh SW 11.4 mph18.3 kmh 30.04 in1017.3 mb 0.01 in0.3 mm 0.00 in/hr0.0 mm/hr 0.06 in1.5 mm
01:14 PM 50.0°F10.0°C 44.1°F6.7°C 80% 5.6 mph SW9.0 kmh SW 11.0 mph17.7 kmh 30.04 in1017.3 mb 0.01 in0.3 mm 0.00 in/hr0.0 mm/hr 0.06 in1.5 mm
01:19 PM 50.0°F10.0°C 44.1°F6.7°C 80% 4.9 mph S7.9 kmh S 9.2 mph14.8 kmh 30.04 in1017.3 mb 0.01 in0.3 mm 0.00 in/hr0.0 mm/hr 0.06 in1.5 mm
01:24 PM 50.0°F10.0°C 44.1°F6.7°C 80% 7.8 mph SW12.6 kmh SW 9.2 mph14.8 kmh 30.04 in1017.3 mb 0.01 in0.3 mm 0.00 in/hr0.0 mm/hr 0.06 in1.5 mm
01:29 PM 50.2°F10.1°C 44.3°F6.8°C 80% 6.2 mph SW10.0 kmh SW 8.9 mph14.3 kmh 30.03 in1016.9 mb 0.01 in0.3 mm 0.00 in/hr0.0 mm/hr 0.06 in1.5 mm
01:34 PM 50.4°F10.2°C 44.5°F6.9°C 80% 6.8 mph SW10.9 kmh SW 7.6 mph12.2 kmh 30.03 in1016.9 mb 0.01 in0.3 mm 0.00 in/hr0.0 mm/hr 0.06 in1.5 mm
01:39 PM 50.4°F10.2°C 44.5°F6.9°C 80% 5.6 mph SW9.0 kmh SW 8.5 mph13.7 kmh 30.03 in1016.9 mb 0.01 in0.3 mm 0.00 in/hr0.0 mm/hr 0.06 in1.5 mm
01:44 PM 50.2°F10.1°C 44.3°F6.8°C 80% 8.9 mph SW14.3 kmh SW 9.4 mph15.1 kmh 30.03 in1016.9 mb 0.01 in0.3 mm 0.00 in/hr0.0 mm/hr 0.06 in1.5 mm
01:49 PM 50.2°F10.1°C 44.3°F6.8°C 80% 6.6 mph SW10.6 kmh SW 9.4 mph15.1 kmh 30.03 in1016.9 mb 0.01 in0.3 mm 0.00 in/hr0.0 mm/hr 0.06 in1.5 mm
01:54 PM 50.4°F10.2°C 44.5°F6.9°C 80% 5.1 mph SW8.2 kmh SW 7.8 mph12.6 kmh 30.03 in1016.9 mb 0.00 in0.0 mm 0.00 in/hr0.0 mm/hr 0.06 in1.5 mm
02:00 PM 50.4°F10.2°C 44.5°F6.9°C 80% 6.0 mph SW9.7 kmh SW 8.1 mph13.0 kmh 30.03 in1016.9 mb 0.00 in0.0 mm 0.00 in/hr0.0 mm/hr 0.06 in1.5 mm
02:05 PM 50.6°F10.3°C 44.6°F7.0°C 80% 8.3 mph SSW13.4 kmh SSW 10.5 mph16.9 kmh 30.03 in1016.9 mb 0.00 in0.0 mm 0.00 in/hr0.0 mm/hr 0.06 in1.5 mm
02:10 PM 50.8°F10.4°C 44.8°F7.1°C 80% 8.5 mph SW13.7 kmh SW 10.5 mph16.9 kmh 30.03 in1016.9 mb 0.00 in0.0 mm 0.00 in/hr0.0 mm/hr 0.06 in1.5 mm
02:15 PM 51.1°F10.6°C 45.5°F7.5°C 81% 8.0 mph SSW12.9 kmh SSW 11.6 mph18.7 kmh 30.03 in1016.9 mb 0.00 in0.0 mm 0.00 in/hr0.0 mm/hr 0.06 in1.5 mm
02:20 PM 51.5°F10.8°C 45.5°F7.5°C 80% 6.9 mph SW11.1 kmh SW 11.6 mph18.7 kmh 30.03 in1016.9 mb 0.00 in0.0 mm 0.00 in/hr0.0 mm/hr 0.06 in1.5 mm
02:25 PM 51.5°F10.8°C 45.5°F7.5°C 80% 7.5 mph SSW12.1 kmh SSW 10.3 mph16.6 kmh 30.03 in1016.9 mb 0.00 in0.0 mm 0.00 in/hr0.0 mm/hr 0.06 in1.5 mm
02:30 PM 51.5°F10.8°C 45.2°F7.3°C 79% 10.5 mph SSW16.9 kmh SSW 13.4 mph21.6 kmh 30.03 in1016.9 mb 0.00 in0.0 mm 0.00 in/hr0.0 mm/hr 0.06 in1.5 mm
02:35 PM 51.5°F10.8°C 45.2°F7.3°C 79% 8.1 mph SW13.0 kmh SW 13.4 mph21.6 kmh 30.03 in1016.9 mb 0.00 in0.0 mm 0.00 in/hr0.0 mm/hr 0.06 in1.5 mm
02:40 PM 52.0°F11.1°C 45.7°F7.6°C 79% 5.9 mph SSW9.5 kmh SSW 11.9 mph19.2 kmh 30.03 in1016.9 mb 0.00 in0.0 mm 0.00 in/hr0.0 mm/hr 0.06 in1.5 mm
02:46 PM 52.2°F11.2°C 45.9°F7.7°C 79% 6.6 mph SW10.6 kmh SW 10.1 mph16.3 kmh 30.03 in1016.9 mb 0.00 in0.0 mm 0.00 in/hr0.0 mm/hr 0.06 in1.5 mm
02:50 PM 52.2°F11.2°C 45.5°F7.5°C 78% 6.9 mph SW11.1 kmh SW 10.1 mph16.3 kmh 30.03 in1016.9 mb 0.00 in0.0 mm 0.00 in/hr0.0 mm/hr 0.06 in1.5 mm
02:56 PM 52.2°F11.2°C 45.5°F7.5°C 78% 8.4 mph SW13.5 kmh SW 9.8 mph15.8 kmh 30.03 in1016.9 mb 0.00 in0.0 mm 0.00 in/hr0.0 mm/hr 0.06 in1.5 mm
03:01 PM 52.2°F11.2°C 45.2°F7.3°C 77% 7.7 mph SSW12.4 kmh SSW 9.8 mph15.8 kmh 30.03 in1016.9 mb 0.00 in0.0 mm 0.00 in/hr0.0 mm/hr 0.06 in1.5 mm
03:06 PM 52.2°F11.2°C 45.2°F7.3°C 77% 6.4 mph SW10.3 kmh SW 9.4 mph15.1 kmh 30.03 in1016.9 mb 0.00 in0.0 mm 0.00 in/hr0.0 mm/hr 0.06 in1.5 mm
03:11 PM 52.2°F11.2°C 45.2°F7.3°C 77% 9.4 mph SW15.1 kmh SW 10.1 mph16.3 kmh 30.03 in1016.9 mb 0.00 in0.0 mm 0.00 in/hr0.0 mm/hr 0.06 in1.5 mm
03:16 PM 52.2°F11.2°C 45.2°F7.3°C 77% 5.9 mph SSW9.5 kmh SSW 10.3 mph16.6 kmh 30.03 in1016.9 mb 0.00 in0.0 mm 0.00 in/hr0.0 mm/hr 0.06 in1.5 mm
03:21 PM 52.2°F11.2°C 45.2°F7.3°C 77% 5.1 mph SSW8.2 kmh SSW 10.3 mph16.6 kmh 30.03 in1016.9 mb 0.00 in0.0 mm 0.00 in/hr0.0 mm/hr 0.06 in1.5 mm
03:26 PM 52.2°F11.2°C 45.2°F7.3°C 77% 8.1 mph SW13.0 kmh SW 9.8 mph15.8 kmh 30.03 in1016.9 mb 0.00 in0.0 mm 0.00 in/hr0.0 mm/hr 0.06 in1.5 mm
03:31 PM 52.4°F11.3°C 45.4°F7.4°C 77% 8.5 mph SW13.7 kmh SW 9.4 mph15.1 kmh 30.03 in1016.9 mb 0.00 in0.0 mm 0.00 in/hr0.0 mm/hr 0.06 in1.5 mm
03:36 PM 52.2°F11.2°C 44.9°F7.2°C 76% 8.5 mph SW13.7 kmh SW 12.8 mph20.6 kmh 30.02 in1016.6 mb 0.00 in0.0 mm 0.00 in/hr0.0 mm/hr 0.06 in1.5 mm
03:42 PM 52.4°F11.3°C 44.7°F7.1°C 75% 5.5 mph SW8.9 kmh SW 12.8 mph20.6 kmh 30.03 in1016.9 mb 0.00 in0.0 mm 0.00 in/hr0.0 mm/hr 0.06 in1.5 mm
03:46 PM 52.4°F11.3°C 44.7°F7.1°C 75% 7.3 mph SW11.7 kmh SW 8.9 mph14.3 kmh 30.02 in1016.6 mb 0.00 in0.0 mm 0.00 in/hr0.0 mm/hr 0.06 in1.5 mm
03:52 PM 52.2°F11.2°C 44.6°F7.0°C 75% 8.2 mph SW13.2 kmh SW 8.3 mph13.4 kmh 30.02 in1016.6 mb 0.00 in0.0 mm 0.00 in/hr0.0 mm/hr 0.06 in1.5 mm
03:57 PM 52.4°F11.3°C 44.7°F7.1°C 75% 6.7 mph SW10.8 kmh SW 8.5 mph13.7 kmh 30.02 in1016.6 mb 0.00 in0.0 mm 0.00 in/hr0.0 mm/hr 0.06 in1.5 mm
04:02 PM 52.4°F11.3°C 44.7°F7.1°C 75% 5.8 mph SSW9.3 kmh SSW 8.5 mph13.7 kmh 30.02 in1016.6 mb 0.00 in0.0 mm 0.00 in/hr0.0 mm/hr 0.06 in1.5 mm
04:07 PM 52.2°F11.2°C 44.6°F7.0°C 75% 6.6 mph SW10.6 kmh SW 7.8 mph12.6 kmh 30.03 in1016.9 mb 0.00 in0.0 mm 0.00 in/hr0.0 mm/hr 0.06 in1.5 mm
04:13 PM 52.2°F11.2°C 44.9°F7.2°C 76% 7.7 mph SW12.4 kmh SW 9.8 mph15.8 kmh 30.03 in1016.9 mb 0.00 in0.0 mm 0.00 in/hr0.0 mm/hr 0.06 in1.5 mm
04:18 PM 52.2°F11.2°C 44.9°F7.2°C 76% 8.1 mph SW13.0 kmh SW 9.6 mph15.4 kmh 30.03 in1016.9 mb 0.00 in0.0 mm 0.00 in/hr0.0 mm/hr 0.06 in1.5 mm
04:23 PM 52.2°F11.2°C 44.9°F7.2°C 76% 8.1 mph SW13.0 kmh SW 9.4 mph15.1 kmh 30.03 in1016.9 mb 0.00 in0.0 mm 0.00 in/hr0.0 mm/hr 0.06 in1.5 mm
04:28 PM 51.8°F11.0°C 44.6°F7.0°C 76% 7.7 mph W12.4 kmh W 10.1 mph16.3 kmh 30.03 in1016.9 mb 0.00 in0.0 mm 0.00 in/hr0.0 mm/hr 0.06 in1.5 mm
04:33 PM 51.8°F11.0°C 44.6°F7.0°C 76% 8.6 mph SW13.8 kmh SW 10.1 mph16.3 kmh 30.03 in1016.9 mb 0.00 in0.0 mm 0.00 in/hr0.0 mm/hr 0.06 in1.5 mm
04:38 PM 51.8°F11.0°C 44.9°F7.2°C 77% 10.4 mph SW16.7 kmh SW 12.1 mph19.5 kmh 30.03 in1016.9 mb 0.00 in0.0 mm 0.00 in/hr0.0 mm/hr 0.06 in1.5 mm
04:43 PM 52.0°F11.1°C 45.1°F7.3°C 77% 6.9 mph SW11.1 kmh SW 12.1 mph19.5 kmh 30.03 in1016.9 mb 0.00 in0.0 mm 0.00 in/hr0.0 mm/hr 0.06 in1.5 mm
04:48 PM 52.2°F11.2°C 45.5°F7.5°C 78% 6.4 mph SW10.3 kmh SW 11.9 mph19.2 kmh 30.03 in1016.9 mb 0.00 in0.0 mm 0.00 in/hr0.0 mm/hr 0.06 in1.5 mm
04:53 PM 52.4°F11.3°C 45.4°F7.4°C 77% 6.3 mph SW10.1 kmh SW 11.0 mph17.7 kmh 30.03 in1016.9 mb 0.00 in0.0 mm 0.00 in/hr0.0 mm/hr 0.06 in1.5 mm
04:58 PM 52.2°F11.2°C 45.2°F7.3°C 77% 6.9 mph S11.1 kmh S 11.0 mph17.7 kmh 30.03 in1016.9 mb 0.00 in0.0 mm 0.00 in/hr0.0 mm/hr 0.06 in1.5 mm
05:03 PM 52.2°F11.2°C 45.2°F7.3°C 77% 7.3 mph SW11.7 kmh SW 10.7 mph17.2 kmh 30.03 in1016.9 mb 0.00 in0.0 mm 0.00 in/hr0.0 mm/hr 0.06 in1.5 mm
05:08 PM 52.0°F11.1°C 45.1°F7.3°C 77% 9.7 mph SW15.6 kmh SW 10.5 mph16.9 kmh 30.03 in1016.9 mb 0.00 in0.0 mm 0.00 in/hr0.0 mm/hr 0.06 in1.5 mm
05:13 PM 51.8°F11.0°C 44.9°F7.2°C 77% 7.8 mph SW12.6 kmh SW 10.5 mph16.9 kmh 30.03 in1016.9 mb 0.00 in0.0 mm 0.00 in/hr0.0 mm/hr 0.06 in1.5 mm
05:18 PM 51.5°F10.8°C 44.6°F7.0°C 77% 7.9 mph WSW12.7 kmh WSW 12.8 mph20.6 kmh 30.03 in1016.9 mb 0.00 in0.0 mm 0.00 in/hr0.0 mm/hr 0.06 in1.5 mm
05:23 PM 51.5°F10.8°C 44.6°F7.0°C 77% 8.1 mph SSW13.0 kmh SSW 12.8 mph20.6 kmh 30.03 in1016.9 mb 0.00 in0.0 mm 0.00 in/hr0.0 mm/hr 0.06 in1.5 mm
05:28 PM 51.5°F10.8°C 44.6°F7.0°C 77% 6.7 mph SSW10.8 kmh SSW 10.1 mph16.3 kmh 30.03 in1016.9 mb 0.00 in0.0 mm 0.00 in/hr0.0 mm/hr 0.06 in1.5 mm
05:33 PM 51.3°F10.7°C 44.4°F6.9°C 77% 9.5 mph SSW15.3 kmh SSW 11.4 mph18.3 kmh 30.03 in1016.9 mb 0.00 in0.0 mm 0.00 in/hr0.0 mm/hr 0.06 in1.5 mm
05:38 PM 51.1°F10.6°C 44.2°F6.8°C 77% 8.5 mph SW13.7 kmh SW 11.4 mph18.3 kmh 30.03 in1016.9 mb 0.00 in0.0 mm 0.00 in/hr0.0 mm/hr 0.06 in1.5 mm
05:43 PM 51.1°F10.6°C 44.2°F6.8°C 77% 7.6 mph S12.2 kmh S 11.2 mph18.0 kmh 30.03 in1016.9 mb 0.00 in0.0 mm 0.00 in/hr0.0 mm/hr 0.06 in1.5 mm
05:48 PM 50.9°F10.5°C 44.3°F6.8°C 78% 8.6 mph SW13.8 kmh SW 10.3 mph16.6 kmh 30.03 in1016.9 mb 0.00 in0.0 mm 0.00 in/hr0.0 mm/hr 0.06 in1.5 mm
05:53 PM 50.9°F10.5°C 44.3°F6.8°C 78% 5.4 mph SW8.7 kmh SW 10.3 mph16.6 kmh 30.03 in1016.9 mb 0.00 in0.0 mm 0.00 in/hr0.0 mm/hr 0.06 in1.5 mm
05:58 PM 50.9°F10.5°C 44.3°F6.8°C 78% 5.2 mph SSW8.4 kmh SSW 8.7 mph14.0 kmh 30.03 in1016.9 mb 0.00 in0.0 mm 0.00 in/hr0.0 mm/hr 0.06 in1.5 mm
06:04 PM 50.9°F10.5°C 44.3°F6.8°C 78% 4.9 mph SSW7.9 kmh SSW 8.7 mph14.0 kmh 30.03 in1016.9 mb 0.00 in0.0 mm 0.00 in/hr0.0 mm/hr 0.06 in1.5 mm
06:09 PM 50.9°F10.5°C 44.3°F6.8°C 78% 5.9 mph WSW9.5 kmh WSW 8.9 mph14.3 kmh 30.03 in1016.9 mb 0.00 in0.0 mm 0.00 in/hr0.0 mm/hr 0.06 in1.5 mm
06:14 PM 50.8°F10.4°C 44.1°F6.7°C 78% 8.6 mph WSW13.8 kmh WSW 9.2 mph14.8 kmh 30.03 in1016.9 mb 0.00 in0.0 mm 0.00 in/hr0.0 mm/hr 0.06 in1.5 mm
06:19 PM 50.8°F10.4°C 44.1°F6.7°C 78% 6.7 mph SW10.8 kmh SW 9.2 mph14.8 kmh 30.03 in1016.9 mb 0.00 in0.0 mm 0.00 in/hr0.0 mm/hr 0.06 in1.5 mm
06:24 PM 50.6°F10.3°C 43.9°F6.6°C 78% 10.2 mph SW16.4 kmh SW 11.0 mph17.7 kmh 30.03 in1016.9 mb 0.01 in0.3 mm 0.12 in/hr3.0 mm/hr 0.07 in1.8 mm
06:29 PM 50.6°F10.3°C 43.9°F6.6°C 78% 5.2 mph SSW8.4 kmh SSW 11.0 mph17.7 kmh 30.03 in1016.9 mb 0.01 in0.3 mm 0.00 in/hr0.0 mm/hr 0.07 in1.8 mm
06:34 PM 50.4°F10.2°C 43.7°F6.5°C 78% 4.6 mph SW7.4 kmh SW 9.8 mph15.8 kmh 30.04 in1017.3 mb 0.01 in0.3 mm 0.00 in/hr0.0 mm/hr 0.07 in1.8 mm
06:39 PM 50.4°F10.2°C 44.1°F6.7°C 79% 4.9 mph SW7.9 kmh SW 8.5 mph13.7 kmh 30.03 in1016.9 mb 0.01 in0.3 mm 0.00 in/hr0.0 mm/hr 0.07 in1.8 mm
06:44 PM 50.4°F10.2°C 44.1°F6.7°C 79% 5.9 mph SW9.5 kmh SW 9.8 mph15.8 kmh 30.04 in1017.3 mb 0.01 in0.3 mm 0.00 in/hr0.0 mm/hr 0.07 in1.8 mm
06:49 PM 50.2°F10.1°C 43.9°F6.6°C 79% 5.7 mph SSW9.2 kmh SSW 9.8 mph15.8 kmh 30.04 in1017.3 mb 0.01 in0.3 mm 0.00 in/hr0.0 mm/hr 0.07 in1.8 mm
06:54 PM 50.2°F10.1°C 43.9°F6.6°C 79% 4.2 mph SSW6.8 kmh SSW 8.1 mph13.0 kmh 30.03 in1016.9 mb 0.01 in0.3 mm 0.00 in/hr0.0 mm/hr 0.07 in1.8 mm
07:00 PM 50.2°F10.1°C 43.9°F6.6°C 79% 3.9 mph SW6.3 kmh SW 8.1 mph13.0 kmh 30.03 in1016.9 mb 0.01 in0.3 mm 0.00 in/hr0.0 mm/hr 0.07 in1.8 mm
07:05 PM 50.0°F10.0°C 43.7°F6.5°C 79% 4.3 mph SW6.9 kmh SW 6.0 mph9.7 kmh 30.03 in1016.9 mb 0.01 in0.3 mm 0.00 in/hr0.0 mm/hr 0.07 in1.8 mm
07:10 PM 50.0°F10.0°C 44.1°F6.7°C 80% 4.5 mph SW7.2 kmh SW 7.4 mph11.9 kmh 30.03 in1016.9 mb 0.01 in0.3 mm 0.00 in/hr0.0 mm/hr 0.07 in1.8 mm
07:15 PM 50.0°F10.0°C 43.7°F6.5°C 79% 5.3 mph SW8.5 kmh SW 7.4 mph11.9 kmh 30.03 in1016.9 mb 0.01 in0.3 mm 0.00 in/hr0.0 mm/hr 0.07 in1.8 mm
07:20 PM 50.0°F10.0°C 44.1°F6.7°C 80% 5.3 mph SW8.5 kmh SW 7.2 mph11.6 kmh 30.03 in1016.9 mb 0.01 in0.3 mm 0.00 in/hr0.0 mm/hr 0.07 in1.8 mm
07:25 PM 49.9°F9.9°C 43.9°F6.6°C 80% 4.1 mph SW6.6 kmh SW 7.2 mph11.6 kmh 30.03 in1016.9 mb 0.00 in0.0 mm 0.00 in/hr0.0 mm/hr 0.07 in1.8 mm
07:30 PM 50.0°F10.0°C 44.1°F6.7°C 80% 5.7 mph S9.2 kmh S 6.9 mph11.1 kmh 30.03 in1016.9 mb 0.00 in0.0 mm 0.00 in/hr0.0 mm/hr 0.07 in1.8 mm
07:35 PM 50.0°F10.0°C 44.1°F6.7°C 80% 5.3 mph S8.5 kmh S 6.9 mph11.1 kmh 30.03 in1016.9 mb 0.00 in0.0 mm 0.00 in/hr0.0 mm/hr 0.07 in1.8 mm
07:40 PM 50.0°F10.0°C 44.1°F6.7°C 80% 3.0 mph S4.8 kmh S 6.7 mph10.8 kmh 30.03 in1016.9 mb 0.00 in0.0 mm 0.00 in/hr0.0 mm/hr 0.07 in1.8 mm
07:46 PM 50.0°F10.0°C 44.1°F6.7°C 80% 2.1 mph SSW3.4 kmh SSW 5.8 mph9.3 kmh 30.03 in1016.9 mb 0.00 in0.0 mm 0.00 in/hr0.0 mm/hr 0.07 in1.8 mm
07:51 PM 50.0°F10.0°C 44.1°F6.7°C 80% 1.6 mph SSW2.6 kmh SSW 3.4 mph5.5 kmh 30.03 in1016.9 mb 0.00 in0.0 mm 0.00 in/hr0.0 mm/hr 0.07 in1.8 mm
07:56 PM 49.9°F9.9°C 43.9°F6.6°C 80% 0.6 mph SW1.0 kmh SW 1.8 mph2.9 kmh 30.03 in1016.9 mb 0.00 in0.0 mm 0.00 in/hr0.0 mm/hr 0.07 in1.8 mm
08:01 PM 49.9°F9.9°C 43.9°F6.6°C 80% 1.1 mph S1.8 kmh S 2.9 mph4.7 kmh 30.03 in1016.9 mb 0.00 in0.0 mm 0.00 in/hr0.0 mm/hr 0.07 in1.8 mm
08:06 PM 49.7°F9.8°C 43.7°F6.5°C 80% 1.6 mph SSW2.6 kmh SSW 4.0 mph6.4 kmh 30.03 in1016.9 mb 0.00 in0.0 mm 0.00 in/hr0.0 mm/hr 0.07 in1.8 mm
08:11 PM 49.7°F9.8°C 43.7°F6.5°C 80% 2.0 mph SW3.2 kmh SW 4.3 mph6.9 kmh 30.03 in1016.9 mb 0.00 in0.0 mm 0.00 in/hr0.0 mm/hr 0.07 in1.8 mm
08:16 PM 49.7°F9.8°C 43.7°F6.5°C 80% 0.8 mph SW1.3 kmh SW 4.3 mph6.9 kmh 30.04 in1017.3 mb 0.00 in0.0 mm 0.00 in/hr0.0 mm/hr 0.07 in1.8 mm
08:22 PM 49.7°F9.8°C 43.7°F6.5°C 80% 1.7 mph SW2.7 kmh SW 4.3 mph6.9 kmh 30.04 in1017.3 mb 0.00 in0.0 mm 0.00 in/hr0.0 mm/hr 0.07 in1.8 mm
08:27 PM 49.7°F9.8°C 44.0°F6.7°C 81% 2.6 mph SW4.2 kmh SW 4.3 mph6.9 kmh 30.03 in1016.9 mb 0.00 in0.0 mm 0.00 in/hr0.0 mm/hr 0.07 in1.8 mm
08:32 PM 49.5°F9.7°C 43.8°F6.6°C 81% 2.2 mph SW3.5 kmh SW 4.0 mph6.4 kmh 30.03 in1016.9 mb 0.00 in0.0 mm 0.00 in/hr0.0 mm/hr 0.07 in1.8 mm
08:37 PM 49.7°F9.8°C 44.0°F6.7°C 81% 5.1 mph SW8.2 kmh SW 8.3 mph13.4 kmh 30.04 in1017.3 mb 0.00 in0.0 mm 0.00 in/hr0.0 mm/hr 0.07 in1.8 mm
08:42 PM 49.7°F9.8°C 44.0°F6.7°C 81% 7.6 mph SW12.2 kmh SW 9.2 mph14.8 kmh 30.04 in1017.3 mb 0.00 in0.0 mm 0.00 in/hr0.0 mm/hr 0.07 in1.8 mm
08:47 PM 49.7°F9.8°C 44.4°F6.9°C 82% 6.7 mph SW10.8 kmh SW 9.2 mph14.8 kmh 30.03 in1016.9 mb 0.00 in0.0 mm 0.00 in/hr0.0 mm/hr 0.07 in1.8 mm
08:52 PM 49.7°F9.8°C 44.4°F6.9°C 82% 4.9 mph WSW7.9 kmh WSW 8.1 mph13.0 kmh 30.04 in1017.3 mb 0.00 in0.0 mm 0.00 in/hr0.0 mm/hr 0.07 in1.8 mm
08:57 PM 49.9°F9.9°C 44.6°F7.0°C 82% 9.5 mph SW15.3 kmh SW 9.8 mph15.8 kmh 30.04 in1017.3 mb 0.00 in0.0 mm 0.00 in/hr0.0 mm/hr 0.07 in1.8 mm
09:03 PM 49.9°F9.9°C 44.6°F7.0°C 82% 10.2 mph SW16.4 kmh SW 11.0 mph17.7 kmh 30.03 in1016.9 mb 0.00 in0.0 mm 0.00 in/hr0.0 mm/hr 0.07 in1.8 mm
09:08 PM 50.0°F10.0°C 44.7°F7.1°C 82% 5.6 mph SW9.0 kmh SW 11.0 mph17.7 kmh 30.03 in1016.9 mb 0.00 in0.0 mm 0.00 in/hr0.0 mm/hr 0.07 in1.8 mm
09:14 PM 50.0°F10.0°C 44.7°F7.1°C 82% 6.8 mph WSW10.9 kmh WSW 9.4 mph15.1 kmh 30.03 in1016.9 mb 0.00 in0.0 mm 0.00 in/hr0.0 mm/hr 0.07 in1.8 mm
09:19 PM 50.0°F10.0°C 44.7°F7.1°C 82% 7.0 mph SW11.3 kmh SW 9.2 mph14.8 kmh 30.03 in1016.9 mb 0.00 in0.0 mm 0.00 in/hr0.0 mm/hr 0.07 in1.8 mm
09:24 PM 50.0°F10.0°C 44.7°F7.1°C 82% 5.9 mph SW9.5 kmh SW 9.2 mph14.8 kmh 30.03 in1016.9 mb 0.00 in0.0 mm 0.00 in/hr0.0 mm/hr 0.07 in1.8 mm
09:29 PM 50.0°F10.0°C 44.7°F7.1°C 82% 5.4 mph SW8.7 kmh SW 6.9 mph11.1 kmh 30.03 in1016.9 mb 0.00 in0.0 mm 0.00 in/hr0.0 mm/hr 0.07 in1.8 mm
09:34 PM 50.0°F10.0°C 44.7°F7.1°C 82% 5.8 mph SW9.3 kmh SW 8.5 mph13.7 kmh 30.04 in1017.3 mb 0.00 in0.0 mm 0.00 in/hr0.0 mm/hr 0.07 in1.8 mm
09:39 PM 50.0°F10.0°C 44.7°F7.1°C 82% 6.6 mph SSW10.6 kmh SSW 8.5 mph13.7 kmh 30.04 in1017.3 mb 0.00 in0.0 mm 0.00 in/hr0.0 mm/hr 0.07 in1.8 mm
09:44 PM 50.0°F10.0°C 44.7°F7.1°C 82% 7.6 mph SW12.2 kmh SW 10.1 mph16.3 kmh 30.04 in1017.3 mb 0.00 in0.0 mm 0.00 in/hr0.0 mm/hr 0.07 in1.8 mm
09:50 PM 50.0°F10.0°C 44.7°F7.1°C 82% 8.6 mph SW13.8 kmh SW 10.1 mph16.3 kmh 30.04 in1017.3 mb 0.00 in0.0 mm 0.00 in/hr0.0 mm/hr 0.07 in1.8 mm
09:55 PM 49.9°F9.9°C 44.2°F6.8°C 81% 5.8 mph SW9.3 kmh SW 9.8 mph15.8 kmh 30.04 in1017.3 mb 0.00 in0.0 mm 0.00 in/hr0.0 mm/hr 0.07 in1.8 mm
10:00 PM 49.7°F9.8°C 44.4°F6.9°C 82% 7.6 mph SW12.2 kmh SW 10.1 mph16.3 kmh 30.04 in1017.3 mb 0.00 in0.0 mm 0.00 in/hr0.0 mm/hr 0.07 in1.8 mm
10:06 PM 49.5°F9.7°C 44.2°F6.8°C 82% 6.3 mph SW10.1 kmh SW 10.1 mph16.3 kmh 30.04 in1017.3 mb 0.00 in0.0 mm 0.00 in/hr0.0 mm/hr 0.07 in1.8 mm
10:11 PM 49.3°F9.6°C 44.0°F6.7°C 82% 8.9 mph SW14.3 kmh SW 10.5 mph16.9 kmh 30.04 in1017.3 mb 0.00 in0.0 mm 0.00 in/hr0.0 mm/hr 0.07 in1.8 mm
10:16 PM 49.3°F9.6°C 44.0°F6.7°C 82% 7.6 mph SW12.2 kmh SW 10.5 mph16.9 kmh 30.04 in1017.3 mb 0.00 in0.0 mm 0.00 in/hr0.0 mm/hr 0.07 in1.8 mm
10:21 PM 49.1°F9.5°C 43.8°F6.6°C 82% 3.6 mph SW5.8 kmh SW 8.9 mph14.3 kmh 30.04 in1017.3 mb 0.00 in0.0 mm 0.00 in/hr0.0 mm/hr 0.07 in1.8 mm
10:26 PM 49.0°F9.4°C 43.7°F6.5°C 82% 8.8 mph WSW14.2 kmh WSW 8.9 mph14.3 kmh 30.04 in1017.3 mb 0.00 in0.0 mm 0.00 in/hr0.0 mm/hr 0.07 in1.8 mm
10:31 PM 48.6°F9.2°C 43.3°F6.3°C 82% 7.3 mph SW11.7 kmh SW 8.9 mph14.3 kmh 30.04 in1017.3 mb 0.00 in0.0 mm 0.00 in/hr0.0 mm/hr 0.07 in1.8 mm
10:36 PM 48.6°F9.2°C 43.3°F6.3°C 82% 4.8 mph SW7.7 kmh SW 7.6 mph12.2 kmh 30.04 in1017.3 mb 0.00 in0.0 mm 0.00 in/hr0.0 mm/hr 0.07 in1.8 mm
10:42 PM 48.4°F9.1°C 43.5°F6.4°C 83% 4.7 mph SW7.6 kmh SW 7.6 mph12.2 kmh 30.04 in1017.3 mb 0.00 in0.0 mm 0.00 in/hr0.0 mm/hr 0.07 in1.8 mm
10:47 PM 48.2°F9.0°C 42.9°F6.1°C 82% 3.7 mph WSW6.0 kmh WSW 6.3 mph10.1 kmh 30.04 in1017.3 mb 0.00 in0.0 mm 0.00 in/hr0.0 mm/hr 0.07 in1.8 mm
10:52 PM 48.1°F8.9°C 42.8°F6.0°C 82% 2.6 mph SW4.2 kmh SW 6.3 mph10.1 kmh 30.04 in1017.3 mb 0.00 in0.0 mm 0.00 in/hr0.0 mm/hr 0.07 in1.8 mm
10:57 PM 47.9°F8.8°C 42.7°F5.9°C 82% 1.2 mph SW1.9 kmh SW 4.3 mph6.9 kmh 30.04 in1017.3 mb 0.00 in0.0 mm 0.00 in/hr0.0 mm/hr 0.07 in1.8 mm
11:03 PM 47.9°F8.8°C 42.7°F5.9°C 82% 5.6 mph SW9.0 kmh SW 5.8 mph9.3 kmh 30.04 in1017.3 mb 0.00 in0.0 mm 0.00 in/hr0.0 mm/hr 0.07 in1.8 mm
11:08 PM 47.7°F8.7°C 42.5°F5.8°C 82% 3.5 mph SW5.6 kmh SW 6.3 mph10.1 kmh 30.04 in1017.3 mb 0.00 in0.0 mm 0.00 in/hr0.0 mm/hr 0.07 in1.8 mm
11:13 PM 47.5°F8.6°C 42.6°F5.9°C 83% 3.5 mph SW5.6 kmh SW 6.3 mph10.1 kmh 30.04 in1017.3 mb 0.00 in0.0 mm 0.00 in/hr0.0 mm/hr 0.07 in1.8 mm
11:18 PM 47.5°F8.6°C 42.6°F5.9°C 83% 2.6 mph WSW4.2 kmh WSW 4.0 mph6.4 kmh 30.04 in1017.3 mb 0.00 in0.0 mm 0.00 in/hr0.0 mm/hr 0.07 in1.8 mm
11:23 PM 47.5°F8.6°C 42.6°F5.9°C 83% 0.7 mph SW1.1 kmh SW 4.9 mph7.9 kmh 30.03 in1016.9 mb 0.00 in0.0 mm 0.00 in/hr0.0 mm/hr 0.07 in1.8 mm
11:28 PM 47.3°F8.5°C 42.5°F5.8°C 83% Calm Calm 4.9 mph7.9 kmh 30.03 in1016.9 mb 0.00 in0.0 mm 0.00 in/hr0.0 mm/hr 0.07 in1.8 mm
11:33 PM 47.2°F8.4°C 42.3°F5.7°C 83% 0.2 mph SW0.3 kmh SW 3.4 mph5.5 kmh 30.03 in1016.9 mb 0.00 in0.0 mm 0.00 in/hr0.0 mm/hr 0.07 in1.8 mm
11:39 PM 47.0°F8.3°C 42.1°F5.6°C 83% 0.4 mph SE0.6 kmh SE 0.4 mph0.6 kmh 30.04 in1017.3 mb 0.00 in0.0 mm 0.00 in/hr0.0 mm/hr 0.07 in1.8 mm
11:44 PM 46.8°F8.2°C 42.0°F5.6°C 83% 0.4 mph E0.6 kmh E 2.2 mph3.5 kmh 30.03 in1016.9 mb 0.00 in0.0 mm 0.00 in/hr0.0 mm/hr 0.07 in1.8 mm
11:49 PM 46.6°F8.1°C 41.8°F5.4°C 83% 1.1 mph WSW1.8 kmh WSW 2.2 mph3.5 kmh 30.03 in1016.9 mb 0.00 in0.0 mm 0.00 in/hr0.0 mm/hr 0.07 in1.8 mm
11:54 PM 46.6°F8.1°C 41.8°F5.4°C 83% 3.6 mph SW5.8 kmh SW 6.0 mph9.7 kmh 30.04 in1017.3 mb 0.00 in0.0 mm 0.00 in/hr0.0 mm/hr 0.07 in1.8 mm